Time;durP1;ratioP1;P1;durP2;ratioP2;P2;SDS_P1;SDS_P2;PMS_P1;PMS_P2;Temp;Humidity;BMP_temperature;BMP_pressure;BME280_temperature;BME280_humidity;BME280_pressure;Samples;Min_cycle;Max_cycle;Signal;HPM_P1;HPM_P2
2023/05/23 00:02:25;;;;;;;15.77;13.17;;;;;;;;;;5114946;28;20446;-75
2023/05/23 00:04:57;;;;;;;17.97;12.90;;;;;;;;;;5114896;28;20453;-75
2023/05/23 00:07:25;;;;;;;17.30;12.30;;;;;;;;;;5115184;28;20445;-75
2023/05/23 00:09:52;;;;;;;15.90;12.43;;;;;;;;;;5114992;28;20490;-75
2023/05/23 00:12:19;;;;;;;16.53;13.80;;;;;;;;;;5114821;28;20446;-75
2023/05/23 00:14:46;;;;;;;15.77;13.33;;;;;;;;;;5114582;28;20477;-75
2023/05/23 00:17:16;;;;;;;21.37;12.67;;;;;;;;;;5114695;28;20494;-75
2023/05/23 00:19:44;;;;;;;16.37;12.67;;;;;;;;;;5114555;28;20450;-76
2023/05/23 00:22:11;;;;;;;15.13;12.33;;;;;;;;;;5114770;28;20525;-76
2023/05/23 00:24:38;;;;;;;14.70;13.03;;;;;;;;;;5114261;28;20470;-75
2023/05/23 00:27:06;;;;;;;16.10;13.30;;;;;;;;;;5114619;28;20453;-75
2023/05/23 00:29:33;;;;;;;19.80;14.37;;;;;;;;;;5114594;28;20458;-75
2023/05/23 00:32:00;;;;;;;16.77;13.77;;;;;;;;;;5114491;28;20450;-75
2023/05/23 00:34:28;;;;;;;17.30;13.93;;;;;;;;;;5114047;28;20476;-75
2023/05/23 00:36:57;;;;;;;20.10;14.50;;;;;;;;;;5114549;28;20923;-75
2023/05/23 00:39:24;;;;;;;17.20;15.07;;;;;;;;;;5114066;28;20496;-75
2023/05/23 00:41:51;;;;;;;14.13;12.13;;;;;;;;;;5114252;27;20460;-75
2023/05/23 00:44:20;;;;;;;27.37;14.97;;;;;;;;;;5114097;28;20862;-76
2023/05/23 00:46:48;;;;;;;20.40;13.93;;;;;;;;;;5114187;28;20461;-75
2023/05/23 00:49:18;;;;;;;21.97;13.23;;;;;;;;;;5114365;28;20949;-75
2023/05/23 00:51:48;;;;;;;15.57;12.63;;;;;;;;;;5114256;28;20465;-76
2023/05/23 00:54:16;;;;;;;17.80;13.10;;;;;;;;;;5114035;27;20470;-75
2023/05/23 00:56:44;;;;;;;17.80;14.30;;;;;;;;;;5113112;28;20927;-75
2023/05/23 00:59:11;;;;;;;21.33;13.50;;;;;;;;;;5114064;28;20543;-75
2023/05/23 01:01:39;;;;;;;15.77;12.50;;;;;;;;;;5113905;28;20458;-75
2023/05/23 01:04:06;;;;;;;14.70;11.70;;;;;;;;;;5113519;28;20512;-76
2023/05/23 01:06:33;;;;;;;15.43;12.93;;;;;;;;;;5113764;28;20942;-75
2023/05/23 01:09:02;;;;;;;21.40;13.57;;;;;;;;;;5113861;28;20801;-75
2023/05/23 01:11:33;;;;;;;17.60;13.20;;;;;;;;;;5113805;28;20947;-75
2023/05/23 01:14:02;;;;;;;16.73;12.80;;;;;;;;;;5113511;28;20888;-75
2023/05/23 01:16:34;;;;;;;17.07;13.90;;;;;;;;;;5113807;28;20465;-75
2023/05/23 01:19:04;;;;;;;15.70;11.60;;;;;;;;;;5113768;28;21047;-75
2023/05/23 01:21:33;;;;;;;17.40;13.63;;;;;;;;;;5113173;28;20480;-75
2023/05/23 01:24:11;;;;;;;16.63;13.10;;;;;;;;;;5113497;28;20489;-76
2023/05/23 01:26:48;;;;;;;16.13;13.50;;;;;;;;;;5113457;28;20464;-76
2023/05/23 01:29:25;;;;;;;18.23;12.43;;;;;;;;;;5113579;28;20873;-76
2023/05/23 01:31:53;;;;;;;16.07;12.63;;;;;;;;;;5113624;28;20957;-76
2023/05/23 01:34:21;;;;;;;15.93;12.47;;;;;;;;;;5113198;28;20804;-76
2023/05/23 01:36:50;;;;;;;15.30;13.10;;;;;;;;;;5113444;28;20450;-76
2023/05/23 01:39:17;;;;;;;15.87;12.00;;;;;;;;;;5113199;28;20481;-76
2023/05/23 01:41:44;;;;;;;16.20;12.50;;;;;;;;;;5113474;28;20950;-76
2023/05/23 01:44:11;;;;;;;17.30;13.00;;;;;;;;;;5113270;28;20469;-78
2023/05/23 01:46:40;;;;;;;16.90;12.77;;;;;;;;;;5113301;28;20860;-78
2023/05/23 01:49:08;;;;;;;17.60;13.00;;;;;;;;;;5113333;28;20442;-78
2023/05/23 01:51:36;;;;;;;20.23;13.07;;;;;;;;;;5113133;28;20950;-78
2023/05/23 01:54:04;;;;;;;16.40;13.00;;;;;;;;;;5113101;28;20816;-78
2023/05/23 01:56:31;;;;;;;15.00;12.80;;;;;;;;;;5113328;28;21099;-78
2023/05/23 01:58:58;;;;;;;16.30;13.63;;;;;;;;;;5113261;28;21010;-78
2023/05/23 02:01:25;;;;;;;18.60;13.37;;;;;;;;;;5113317;28;20449;-78
2023/05/23 02:03:54;;;;;;;16.27;12.03;;;;;;;;;;5113212;28;20474;-78
2023/05/23 02:06:21;;;;;;;17.23;13.10;;;;;;;;;;5113296;28;20476;-78
2023/05/23 02:08:48;;;;;;;16.20;13.30;;;;;;;;;;5116326;28;20442;-78
2023/05/23 02:11:15;;;;;;;14.33;12.27;;;;;;;;;;5117537;28;20830;-78
2023/05/23 02:13:42;;;;;;;15.80;13.97;;;;;;;;;;5117113;27;20469;-78
2023/05/23 02:16:10;;;;;;;14.53;11.83;;;;;;;;;;5117333;28;20454;-78
2023/05/23 02:18:38;;;;;;;16.00;13.67;;;;;;;;;;5117030;28;20968;-78
2023/05/23 02:21:07;;;;;;;21.20;15.40;;;;;;;;;;5116772;28;20461;-78
2023/05/23 02:23:34;;;;;;;13.80;12.40;;;;;;;;;;5116721;28;21001;-78
2023/05/23 02:26:01;;;;;;;15.77;12.83;;;;;;;;;;5117016;27;20455;-78
2023/05/23 02:28:28;;;;;;;23.70;12.70;;;;;;;;;;5117012;28;20445;-78
2023/05/23 02:30:55;;;;;;;13.77;11.80;;;;;;;;;;5117024;28;20446;-78
2023/05/23 02:33:22;;;;;;;15.70;11.53;;;;;;;;;;5117367;27;20477;-77
2023/05/23 02:35:50;;;;;;;16.63;14.47;;;;;;;;;;5116829;28;20449;-78
2023/05/23 02:38:19;;;;;;;15.70;12.50;;;;;;;;;;5116731;28;21033;-78
2023/05/23 02:40:46;;;;;;;14.30;11.73;;;;;;;;;;5116671;28;20449;-77
2023/05/23 02:43:14;;;;;;;16.90;13.20;;;;;;;;;;5116622;28;20480;-77
2023/05/23 02:45:41;;;;;;;20.83;13.90;;;;;;;;;;5116949;27;20434;-77
2023/05/23 02:48:08;;;;;;;17.07;13.80;;;;;;;;;;5116595;28;20442;-77
2023/05/23 02:50:36;;;;;;;20.27;13.30;;;;;;;;;;5116420;28;20453;-77
2023/05/23 02:53:03;;;;;;;16.73;13.40;;;;;;;;;;5116596;28;21148;-77
2023/05/23 02:55:31;;;;;;;15.03;12.50;;;;;;;;;;5116308;28;20449;-77
2023/05/23 02:57:58;;;;;;;15.20;12.00;;;;;;;;;;5116443;28;20448;-77
2023/05/23 03:00:26;;;;;;;16.07;12.50;;;;;;;;;;5116359;28;20815;-77
2023/05/23 03:02:53;;;;;;;14.17;12.60;;;;;;;;;;5116123;28;20468;-77
2023/05/23 03:05:20;;;;;;;16.13;13.30;;;;;;;;;;5116125;28;20959;-77
2023/05/23 03:07:47;;;;;;;18.17;13.50;;;;;;;;;;5116390;28;20941;-77
2023/05/23 03:10:14;;;;;;;16.53;12.73;;;;;;;;;;5116229;27;20449;-77
2023/05/23 03:12:43;;;;;;;16.47;12.50;;;;;;;;;;5116187;28;20453;-77
2023/05/23 03:15:11;;;;;;;15.60;12.60;;;;;;;;;;5115961;28;20876;-77
2023/05/23 03:17:38;;;;;;;15.20;13.30;;;;;;;;;;5115851;28;20465;-77
2023/05/23 03:20:08;;;;;;;17.60;13.47;;;;;;;;;;5114622;28;20513;-77
2023/05/23 03:22:35;;;;;;;17.60;13.00;;;;;;;;;;5115884;28;20460;-77
2023/05/23 03:25:03;;;;;;;19.03;13.80;;;;;;;;;;5115800;28;20450;-77
2023/05/23 03:27:30;;;;;;;17.80;14.03;;;;;;;;;;5115795;28;20445;-77
2023/05/23 03:29:58;;;;;;;16.10;11.47;;;;;;;;;;5115831;28;20446;-75
2023/05/23 03:32:25;;;;;;;14.33;12.83;;;;;;;;;;5116024;28;20454;-76
2023/05/23 03:34:53;;;;;;;15.80;13.00;;;;;;;;;;5115769;28;20461;-76
2023/05/23 03:37:20;;;;;;;15.13;13.50;;;;;;;;;;5115638;28;20453;-76
2023/05/23 03:39:47;;;;;;;23.03;13.17;;;;;;;;;;5115487;28;20481;-76
2023/05/23 03:42:14;;;;;;;18.07;13.40;;;;;;;;;;5115594;27;20457;-76
2023/05/23 03:44:41;;;;;;;13.40;10.40;;;;;;;;;;5115302;28;20530;-76
2023/05/23 03:47:10;;;;;;;15.57;12.40;;;;;;;;;;5115334;28;20458;-76
2023/05/23 03:49:37;;;;;;;19.43;12.40;;;;;;;;;;5115663;28;20453;-77
2023/05/23 03:52:04;;;;;;;14.80;11.87;;;;;;;;;;5116345;28;20449;-78
2023/05/23 03:54:31;;;;;;;15.87;13.13;;;;;;;;;;5115305;28;20529;-79
2023/05/23 03:56:58;;;;;;;15.80;11.83;;;;;;;;;;5115576;28;20457;-77
2023/05/23 03:59:25;;;;;;;13.23;11.17;;;;;;;;;;5115791;28;20477;-78
2023/05/23 04:01:52;;;;;;;14.10;11.80;;;;;;;;;;5116065;28;20881;-78
2023/05/23 04:04:21;;;;;;;17.80;11.97;;;;;;;;;;5115645;28;20470;-78
2023/05/23 04:06:48;;;;;;;14.73;12.17;;;;;;;;;;5115514;28;20460;-78
2023/05/23 04:09:15;;;;;;;14.53;12.43;;;;;;;;;;5115600;27;20446;-78
2023/05/23 04:11:43;;;;;;;15.53;12.47;;;;;;;;;;5115651;28;20446;-78
2023/05/23 04:14:11;;;;;;;14.73;11.87;;;;;;;;;;5115118;28;21005;-79
2023/05/23 04:16:40;;;;;;;14.20;11.23;;;;;;;;;;5115697;28;20561;-78
2023/05/23 04:19:07;;;;;;;12.97;11.57;;;;;;;;;;5115693;28;20511;-79
2023/05/23 04:21:36;;;;;;;26.93;11.83;;;;;;;;;;5115182;28;20452;-79
2023/05/23 04:24:03;;;;;;;13.60;12.10;;;;;;;;;;5115924;28;20516;-79
2023/05/23 04:26:30;;;;;;;13.47;12.07;;;;;;;;;;5115617;28;20453;-79
2023/05/23 04:28:58;;;;;;;15.90;10.93;;;;;;;;;;5116062;28;20454;-78
2023/05/23 04:31:25;;;;;;;15.93;11.40;;;;;;;;;;5115353;28;20457;-78
2023/05/23 04:33:52;;;;;;;13.00;11.60;;;;;;;;;;5114881;28;20481;-79
2023/05/23 04:36:22;;;;;;;11.43;10.30;;;;;;;;;;5115138;28;20458;-79
2023/05/23 04:38:51;;;;;;;17.90;11.07;;;;;;;;;;5114490;28;20512;-79
2023/05/23 04:41:22;;;;;;;11.00;9.90;;;;;;;;;;5115997;28;20530;-78
2023/05/23 04:43:53;;;;;;;14.17;11.30;;;;;;;;;;5115676;28;20986;-78
2023/05/23 04:46:25;;;;;;;11.80;10.63;;;;;;;;;;5114522;28;20434;-79
2023/05/23 04:48:52;;;;;;;12.73;10.97;;;;;;;;;;5114188;28;20488;-78
2023/05/23 04:51:20;;;;;;;16.63;12.67;;;;;;;;;;5115601;28;20430;-77
2023/05/23 04:53:50;;;;;;;14.03;11.07;;;;;;;;;;5118209;28;20474;-77
2023/05/23 04:56:19;;;;;;;14.70;11.87;;;;;;;;;;5115642;28;20442;-78
2023/05/23 04:58:46;;;;;;;13.20;11.80;;;;;;;;;;5115109;28;20890;-78
2023/05/23 05:01:14;;;;;;;13.50;12.10;;;;;;;;;;5114223;28;20955;-78
2023/05/23 05:03:41;;;;;;;15.93;10.83;;;;;;;;;;5114595;28;20527;-78
2023/05/23 05:06:08;;;;;;;15.40;12.53;;;;;;;;;;5114811;28;20452;-78
2023/05/23 05:08:36;;;;;;;13.10;11.70;;;;;;;;;;5117861;28;20464;-78
2023/05/23 05:11:03;;;;;;;15.50;12.60;;;;;;;;;;5120316;28;20517;-79
2023/05/23 05:13:31;;;;;;;14.77;12.40;;;;;;;;;;5116321;28;20466;-79
2023/05/23 05:15:59;;;;;;;16.03;11.67;;;;;;;;;;5115978;28;20458;-75
2023/05/23 05:18:27;;;;;;;13.63;12.00;;;;;;;;;;5113236;28;20900;-75
2023/05/23 05:20:54;;;;;;;23.00;13.27;;;;;;;;;;5113265;28;20542;-75
2023/05/23 05:23:22;;;;;;;13.37;11.37;;;;;;;;;;5113397;28;20977;-75
2023/05/23 05:25:49;;;;;;;14.70;11.33;;;;;;;;;;5113567;28;20442;-75
2023/05/23 05:28:17;;;;;;;11.90;10.63;;;;;;;;;;5113589;28;20457;-75
2023/05/23 05:30:47;;;;;;;20.87;11.10;;;;;;;;;;5113515;28;20774;-75
2023/05/23 05:33:14;;;;;;;22.93;10.47;;;;;;;;;;5113393;28;21044;-75
2023/05/23 05:35:41;;;;;;;12.63;11.43;;;;;;;;;;5112997;28;21030;-76
2023/05/23 05:38:09;;;;;;;11.57;9.60;;;;;;;;;;5113289;28;20806;-75
2023/05/23 05:40:37;;;;;;;12.20;11.00;;;;;;;;;;5113103;28;20493;-75
2023/05/23 05:43:04;;;;;;;14.13;11.23;;;;;;;;;;5112619;28;20472;-75
2023/05/23 05:45:31;;;;;;;12.80;10.90;;;;;;;;;;5112901;28;20452;-75
2023/05/23 05:47:59;;;;;;;12.50;11.20;;;;;;;;;;5113097;28;20456;-75
2023/05/23 05:50:26;;;;;;;12.43;11.13;;;;;;;;;;5113022;28;20457;-75
2023/05/23 05:52:53;;;;;;;12.83;11.30;;;;;;;;;;5113245;28;20476;-75
2023/05/23 05:55:21;;;;;;;13.70;11.27;;;;;;;;;;5111831;28;20946;-75
2023/05/23 05:57:48;;;;;;;14.03;11.87;;;;;;;;;;5113367;28;20449;-75
2023/05/23 06:00:17;;;;;;;13.57;11.13;;;;;;;;;;5113306;28;20485;-75
2023/05/23 06:02:46;;;;;;;14.33;11.50;;;;;;;;;;5113422;28;20530;-75
2023/05/23 06:05:15;;;;;;;12.80;11.50;;;;;;;;;;5113292;28;20481;-75
2023/05/23 06:07:43;;;;;;;14.77;12.20;;;;;;;;;;5113300;28;20449;-75
2023/05/23 06:10:11;;;;;;;19.53;12.40;;;;;;;;;;5097591;28;20454;-75
2023/05/23 06:12:39;;;;;;;14.37;11.47;;;;;;;;;;5111240;27;20470;-75
2023/05/23 06:15:06;;;;;;;13.90;12.37;;;;;;;;;;5111358;28;20465;-75
2023/05/23 06:17:34;;;;;;;17.07;13.00;;;;;;;;;;5111134;27;20449;-76
2023/05/23 06:20:01;;;;;;;13.63;11.00;;;;;;;;;;5111123;28;20477;-76
2023/05/23 06:22:29;;;;;;;13.03;11.67;;;;;;;;;;5111373;28;20839;-76
2023/05/23 06:24:56;;;;;;;13.27;11.33;;;;;;;;;;5111469;28;20453;-77
2023/05/23 06:27:23;;;;;;;13.17;11.87;;;;;;;;;;5111513;28;20450;-76
2023/05/23 06:29:51;;;;;;;12.67;11.37;;;;;;;;;;5111814;28;20453;-76
2023/05/23 06:32:18;;;;;;;13.30;11.00;;;;;;;;;;5111742;28;20454;-76
2023/05/23 06:34:45;;;;;;;13.13;11.77;;;;;;;;;;5112307;28;20469;-76
2023/05/23 06:37:12;;;;;;;12.57;11.27;;;;;;;;;;5112939;28;20457;-76
2023/05/23 06:39:40;;;;;;;14.63;11.93;;;;;;;;;;5112712;28;20484;-76
2023/05/23 06:42:07;;;;;;;14.23;11.37;;;;;;;;;;5112843;28;20931;-76
2023/05/23 06:44:35;;;;;;;12.20;11.00;;;;;;;;;;5112508;28;20469;-76
2023/05/23 06:47:02;;;;;;;11.83;10.63;;;;;;;;;;5112851;28;20870;-76
2023/05/23 06:49:29;;;;;;;14.53;12.93;;;;;;;;;;5112662;28;20453;-76
2023/05/23 06:51:56;;;;;;;12.40;11.10;;;;;;;;;;5112862;28;20452;-76
2023/05/23 06:54:23;;;;;;;15.77;12.67;;;;;;;;;;5112978;28;20485;-76
2023/05/23 06:56:51;;;;;;;17.70;11.67;;;;;;;;;;5116636;28;20456;-76
2023/05/23 06:59:20;;;;;;;16.33;11.87;;;;;;;;;;5116305;28;20485;-75
2023/05/23 07:01:47;;;;;;;12.70;11.40;;;;;;;;;;5116373;28;20458;-75
2023/05/23 07:04:14;;;;;;;13.30;11.90;;;;;;;;;;5116049;28;20473;-76
2023/05/23 07:06:41;;;;;;;18.60;12.40;;;;;;;;;;5116107;28;20457;-76
2023/05/23 07:09:10;;;;;;;15.30;13.70;;;;;;;;;;5116139;28;20446;-76
2023/05/23 07:11:38;;;;;;;13.83;11.50;;;;;;;;;;5116016;28;20465;-76
2023/05/23 07:14:07;;;;;;;13.37;12.00;;;;;;;;;;5115777;28;20534;-76
2023/05/23 07:16:34;;;;;;;14.00;12.00;;;;;;;;;;5116075;28;20518;-76
2023/05/23 07:19:01;;;;;;;13.03;10.83;;;;;;;;;;5116098;27;20565;-76
2023/05/23 07:21:29;;;;;;;13.33;10.10;;;;;;;;;;5113891;28;20510;-76
2023/05/23 07:23:56;;;;;;;14.07;10.80;;;;;;;;;;5115041;28;20813;-76
2023/05/23 07:26:23;;;;;;;12.63;11.27;;;;;;;;;;5115960;28;20950;-76
2023/05/23 07:28:50;;;;;;;17.13;12.07;;;;;;;;;;5115875;28;20476;-76
2023/05/23 07:31:18;;;;;;;13.30;11.40;;;;;;;;;;5115622;28;20454;-76
2023/05/23 07:33:45;;;;;;;12.20;11.00;;;;;;;;;;5115585;28;20477;-77
2023/05/23 07:36:12;;;;;;;13.10;11.70;;;;;;;;;;5115634;28;20445;-76
2023/05/23 07:38:42;;;;;;;12.10;10.93;;;;;;;;;;5116210;28;20457;-76
2023/05/23 07:41:10;;;;;;;16.60;11.83;;;;;;;;;;5115891;28;20493;-76
2023/05/23 07:43:37;;;;;;;13.47;12.07;;;;;;;;;;5115225;28;20989;-76
2023/05/23 07:46:04;;;;;;;12.40;11.20;;;;;;;;;;5115495;28;20938;-76
2023/05/23 07:48:32;;;;;;;12.37;11.17;;;;;;;;;;5115453;28;20449;-77
2023/05/23 07:50:59;;;;;;;12.63;11.43;;;;;;;;;;5115401;28;20446;-76
2023/05/23 07:53:26;;;;;;;11.93;10.87;;;;;;;;;;5115304;28;20474;-77
2023/05/23 07:55:54;;;;;;;13.73;12.43;;;;;;;;;;5115292;28;20450;-77
2023/05/23 07:58:22;;;;;;;14.33;12.73;;;;;;;;;;5115115;28;20460;-77
2023/05/23 08:00:49;;;;;;;14.83;13.33;;;;;;;;;;5114955;28;20576;-77
2023/05/23 08:03:17;;;;;;;15.53;12.40;;;;;;;;;;5115106;28;20465;-77
2023/05/23 08:05:46;;;;;;;14.37;12.80;;;;;;;;;;5114445;28;20492;-77
2023/05/23 08:08:13;;;;;;;15.33;13.80;;;;;;;;;;5115186;28;20457;-76
2023/05/23 08:10:40;;;;;;;16.60;14.90;;;;;;;;;;5115061;28;20450;-76
2023/05/23 08:13:07;;;;;;;15.80;12.80;;;;;;;;;;5114965;28;21009;-77
2023/05/23 08:15:34;;;;;;;14.67;13.17;;;;;;;;;;5114562;28;20461;-75
2023/05/23 08:18:01;;;;;;;17.93;13.20;;;;;;;;;;5114827;28;20446;-75
2023/05/23 08:20:30;;;;;;;15.47;13.80;;;;;;;;;;5114236;28;20489;-77
2023/05/23 08:23:00;;;;;;;15.33;13.70;;;;;;;;;;5114667;28;21031;-76
2023/05/23 08:25:29;;;;;;;17.37;13.23;;;;;;;;;;5114511;28;20441;-76
2023/05/23 08:27:57;;;;;;;16.23;14.53;;;;;;;;;;5114449;28;20465;-76
2023/05/23 08:30:24;;;;;;;15.73;12.70;;;;;;;;;;5114590;28;20569;-76
2023/05/23 08:32:52;;;;;;;15.60;13.40;;;;;;;;;;5114533;28;20508;-76
2023/05/23 08:35:19;;;;;;;14.57;12.80;;;;;;;;;;5114349;28;20510;-75
2023/05/23 08:37:46;;;;;;;16.37;12.40;;;;;;;;;;5114328;28;20869;-76
2023/05/23 08:40:19;;;;;;;18.30;16.50;;;;;;;;;;5114197;28;20485;-75
2023/05/23 08:42:46;;;;;;;19.37;14.20;;;;;;;;;;5114130;28;20535;-76
2023/05/23 08:45:13;;;;;;;17.20;14.57;;;;;;;;;;5114083;28;20458;-76
2023/05/23 08:47:42;;;;;;;16.57;14.53;;;;;;;;;;5114264;28;20453;-76
2023/05/23 08:50:11;;;;;;;15.07;13.47;;;;;;;;;;5114285;28;20931;-76
2023/05/23 08:52:42;;;;;;;17.60;15.80;;;;;;;;;;5114039;28;20449;-76
2023/05/23 08:55:10;;;;;;;14.83;13.23;;;;;;;;;;5113903;28;20449;-76
2023/05/23 08:57:42;;;;;;;15.27;13.70;;;;;;;;;;5113996;28;20449;-76
2023/05/23 09:00:13;;;;;;;16.50;12.70;;;;;;;;;;5114144;28;20509;-76
2023/05/23 09:02:40;;;;;;;16.73;13.27;;;;;;;;;;5114051;28;20450;-76
2023/05/23 09:05:09;;;;;;;15.47;13.40;;;;;;;;;;5113757;28;20450;-76
2023/05/23 09:07:36;;;;;;;13.70;12.40;;;;;;;;;;5113698;28;20498;-76
2023/05/23 09:10:03;;;;;;;14.63;13.03;;;;;;;;;;5113784;28;20461;-76
2023/05/23 09:12:32;;;;;;;13.73;12.53;;;;;;;;;;5113770;28;20510;-76
2023/05/23 09:15:00;;;;;;;14.43;11.30;;;;;;;;;;5113564;28;20469;-76
2023/05/23 09:17:27;;;;;;;16.30;13.17;;;;;;;;;;5113110;28;20962;-76
2023/05/23 09:19:54;;;;;;;15.27;13.77;;;;;;;;;;5113621;28;20974;-76
2023/05/23 09:22:25;;;;;;;12.63;11.43;;;;;;;;;;5113542;28;20449;-76
2023/05/23 09:24:52;;;;;;;13.87;12.57;;;;;;;;;;5113760;28;20506;-76
2023/05/23 09:27:20;;;;;;;13.70;12.40;;;;;;;;;;5113510;28;20456;-76
2023/05/23 09:29:47;;;;;;;14.93;13.33;;;;;;;;;;5113628;28;20544;-76
2023/05/23 09:32:16;;;;;;;15.90;14.17;;;;;;;;;;5113664;28;20961;-76
2023/05/23 09:34:43;;;;;;;12.00;10.70;;;;;;;;;;5113163;28;20477;-76
2023/05/23 09:37:17;;;;;;;14.30;12.80;;;;;;;;;;5113506;28;20450;-76
2023/05/23 09:39:46;;;;;;;14.40;13.00;;;;;;;;;;5113545;28;20497;-76
2023/05/23 09:42:13;;;;;;;18.10;13.73;;;;;;;;;;5113387;28;20488;-76
2023/05/23 09:44:42;;;;;;;17.40;14.23;;;;;;;;;;5113383;28;20839;-76
2023/05/23 09:47:09;;;;;;;16.00;13.23;;;;;;;;;;5113315;28;20454;-77
2023/05/23 09:49:40;;;;;;;15.63;14.03;;;;;;;;;;5113321;28;20461;-76
2023/05/23 09:52:07;;;;;;;17.70;14.60;;;;;;;;;;5113434;28;20460;-76
2023/05/23 09:54:34;;;;;;;15.10;13.50;;;;;;;;;;5113075;28;20970;-77
2023/05/23 09:57:03;;;;;;;18.40;14.00;;;;;;;;;;5113403;28;20453;-76
2023/05/23 09:59:32;;;;;;;19.60;13.47;;;;;;;;;;5113572;28;20457;-78
2023/05/23 10:02:01;;;;;;;14.37;12.97;;;;;;;;;;5114271;28;20512;-78
2023/05/23 10:04:29;;;;;;;14.20;12.73;;;;;;;;;;5113057;28;20477;-78
2023/05/23 10:07:01;;;;;;;16.07;13.60;;;;;;;;;;5113244;28;20453;-78
2023/05/23 10:09:33;;;;;;;13.87;12.20;;;;;;;;;;5113331;28;20458;-78
2023/05/23 10:12:31;;;;;;;14.77;13.27;;;;;;;;;;5113727;28;20817;-78
2023/05/23 10:14:58;;;;;;;14.23;12.77;;;;;;;;;;5113801;28;20457;-79
2023/05/23 10:17:30;;;;;;;16.73;14.40;;;;;;;;;;5114138;28;20448;-78
2023/05/23 10:19:59;;;;;;;13.43;12.17;;;;;;;;;;5114160;28;20445;-78
2023/05/23 10:22:28;;;;;;;15.37;13.77;;;;;;;;;;5113291;28;20569;-78
2023/05/23 10:24:55;;;;;;;15.97;13.53;;;;;;;;;;5113604;28;20449;-78
2023/05/23 10:27:23;;;;;;;16.90;15.20;;;;;;;;;;5113646;28;20818;-79
2023/05/23 10:29:50;;;;;;;17.93;14.97;;;;;;;;;;5117298;28;20446;-79
2023/05/23 10:32:18;;;;;;;16.97;15.13;;;;;;;;;;5118084;28;20452;-78
2023/05/23 10:34:50;;;;;;;14.93;13.40;;;;;;;;;;5118268;28;20469;-79
2023/05/23 10:37:21;;;;;;;14.87;13.37;;;;;;;;;;5118073;28;20445;-79
2023/05/23 10:39:55;;;;;;;15.33;13.50;;;;;;;;;;5117283;28;20963;-78
2023/05/23 10:42:38;;;;;;;15.47;13.87;;;;;;;;;;5117654;28;21019;-78
2023/05/23 10:45:15;;;;;;;13.87;12.40;;;;;;;;;;5117761;28;20453;-78
2023/05/23 10:47:42;;;;;;;13.03;11.93;;;;;;;;;;5117011;28;20814;-78
2023/05/23 10:50:13;;;;;;;25.83;13.93;;;;;;;;;;5113952;28;20454;-78
2023/05/23 10:52:41;;;;;;;17.20;15.40;;;;;;;;;;5096464;28;20507;-78
2023/05/23 10:55:16;;;;;;;13.67;12.37;;;;;;;;;;5096156;28;20534;-78
2023/05/23 10:57:43;;;;;;;15.90;13.70;;;;;;;;;;5111195;28;20471;-78
2023/05/23 11:00:15;;;;;;;22.07;16.70;;;;;;;;;;5114842;28;20449;-78
2023/05/23 11:02:48;;;;;;;16.30;14.60;;;;;;;;;;5115541;28;20441;-78
2023/05/23 11:05:22;;;;;;;17.83;14.23;;;;;;;;;;5114282;28;20449;-76
2023/05/23 11:08:04;;;;;;;15.80;14.27;;;;;;;;;;5114498;28;20485;-76
2023/05/23 11:10:33;;;;;;;16.33;14.30;;;;;;;;;;5114684;28;20475;-76
2023/05/23 11:13:07;;;;;;;16.47;14.43;;;;;;;;;;5113209;28;20564;-77
2023/05/23 11:15:43;;;;;;;14.43;13.00;;;;;;;;;;5094239;28;20531;-76
2023/05/23 11:18:11;;;;;;;16.10;14.50;;;;;;;;;;5094226;28;20459;-76
2023/05/23 11:20:39;;;;;;;16.07;14.30;;;;;;;;;;5094139;28;20979;-76
2023/05/23 11:23:08;;;;;;;15.10;13.43;;;;;;;;;;5094349;28;20482;-77
2023/05/23 11:25:44;;;;;;;17.80;15.87;;;;;;;;;;5094872;28;20819;-76
2023/05/23 11:28:11;;;;;;;18.67;15.40;;;;;;;;;;5095330;28;20458;-76
2023/05/23 11:30:39;;;;;;;18.20;14.23;;;;;;;;;;5095466;28;21005;-76
2023/05/23 11:33:12;;;;;;;20.63;13.80;;;;;;;;;;5095247;28;20478;-76
2023/05/23 11:35:39;;;;;;;15.60;14.10;;;;;;;;;;5094882;28;20450;-76
2023/05/23 11:38:06;;;;;;;14.43;13.03;;;;;;;;;;5095256;28;20458;-76
2023/05/23 11:40:34;;;;;;;14.60;13.20;;;;;;;;;;5094448;28;20453;-76
2023/05/23 11:43:03;;;;;;;15.60;13.90;;;;;;;;;;5095089;28;20474;-76
2023/05/23 11:45:31;;;;;;;13.60;12.20;;;;;;;;;;5094969;28;20462;-76
2023/05/23 11:47:59;;;;;;;20.20;14.23;;;;;;;;;;5095152;28;20451;-76
2023/05/23 11:50:26;;;;;;;14.97;13.47;;;;;;;;;;5095022;28;20571;-76
2023/05/23 11:52:55;;;;;;;13.77;12.37;;;;;;;;;;5094879;28;20474;-75
2023/05/23 11:55:22;;;;;;;15.73;12.00;;;;;;;;;;5094937;28;20454;-76
2023/05/23 11:57:50;;;;;;;13.73;11.03;;;;;;;;;;5095043;28;20549;-75
2023/05/23 12:00:19;;;;;;;13.13;11.90;;;;;;;;;;5095098;28;20951;-74
2023/05/23 12:02:47;;;;;;;13.23;11.73;;;;;;;;;;5094884;28;20919;-74
2023/05/23 12:05:15;;;;;;;14.50;11.27;;;;;;;;;;5094721;28;20862;-76
2023/05/23 12:07:42;;;;;;;15.87;10.40;;;;;;;;;;5094715;28;20451;-75
2023/05/23 12:10:10;;;;;;;15.70;11.00;;;;;;;;;;5094735;28;20966;-72
2023/05/23 12:12:37;;;;;;;16.67;12.13;;;;;;;;;;5094538;28;20447;-72
2023/05/23 12:15:05;;;;;;;12.37;11.00;;;;;;;;;;5094118;28;20462;-72
2023/05/23 12:17:33;;;;;;;17.20;11.90;;;;;;;;;;5094208;28;20960;-73
2023/05/23 12:20:01;;;;;;;12.80;11.50;;;;;;;;;;5093905;28;20451;-73
2023/05/23 12:22:28;;;;;;;12.20;10.80;;;;;;;;;;5094090;28;20486;-73
2023/05/23 12:24:56;;;;;;;11.40;10.23;;;;;;;;;;5094238;28;20450;-74
2023/05/23 12:27:28;;;;;;;16.80;12.40;;;;;;;;;;5094363;28;20447;-74
2023/05/23 12:30:06;;;;;;;17.40;13.30;;;;;;;;;;5094274;28;21024;-73
2023/05/23 12:32:34;;;;;;;18.50;13.50;;;;;;;;;;5094307;28;20442;-73
2023/05/23 12:35:01;;;;;;;15.03;11.80;;;;;;;;;;5094185;28;20442;-75
2023/05/23 12:37:29;;;;;;;14.50;12.67;;;;;;;;;;5094098;28;20447;-75
2023/05/23 12:39:56;;;;;;;14.00;12.50;;;;;;;;;;5094210;28;20832;-74
2023/05/23 12:42:24;;;;;;;13.67;11.90;;;;;;;;;;5093586;28;20486;-74
2023/05/23 12:44:52;;;;;;;14.03;10.70;;;;;;;;;;5093750;28;20446;-74
2023/05/23 12:47:19;;;;;;;12.60;10.80;;;;;;;;;;5093847;28;20450;-74
2023/05/23 12:49:48;;;;;;;14.90;11.70;;;;;;;;;;5094103;28;20439;-74
2023/05/23 12:52:15;;;;;;;16.30;13.47;;;;;;;;;;5094197;28;20447;-74
2023/05/23 12:54:42;;;;;;;17.37;14.17;;;;;;;;;;5093519;28;20463;-74
2023/05/23 12:57:10;;;;;;;15.30;12.70;;;;;;;;;;5093918;28;20459;-74
2023/05/23 12:59:37;;;;;;;21.37;13.57;;;;;;;;;;5095889;28;20455;-74
2023/05/23 13:02:04;;;;;;;15.53;13.87;;;;;;;;;;5114281;28;20489;-74
2023/05/23 13:04:31;;;;;;;16.17;12.13;;;;;;;;;;5113733;28;20970;-73
2023/05/23 13:07:00;;;;;;;17.00;13.80;;;;;;;;;;5114401;28;20823;-73
2023/05/23 13:09:27;;;;;;;14.37;11.80;;;;;;;;;;5113913;28;20507;-73
2023/05/23 13:11:55;;;;;;;17.37;13.00;;;;;;;;;;5114403;27;20448;-73
2023/05/23 13:14:22;;;;;;;19.67;13.07;;;;;;;;;;5113494;28;20482;-75
2023/05/23 13:16:49;;;;;;;17.77;13.43;;;;;;;;;;5113960;28;20450;-74
2023/05/23 13:19:16;;;;;;;13.23;11.10;;;;;;;;;;5113812;28;20457;-73
2023/05/23 13:21:43;;;;;;;15.30;12.73;;;;;;;;;;5113460;28;20501;-74
2023/05/23 13:24:13;;;;;;;13.67;12.10;;;;;;;;;;5113636;28;20481;-74
2023/05/23 13:26:40;;;;;;;13.17;11.77;;;;;;;;;;5113779;28;20453;-72
2023/05/23 13:29:07;;;;;;;13.53;12.00;;;;;;;;;;5113781;28;20449;-72
2023/05/23 13:31:34;;;;;;;20.23;12.07;;;;;;;;;;5113978;28;20445;-74
2023/05/23 13:34:01;;;;;;;16.40;13.40;;;;;;;;;;5113682;28;20462;-73
2023/05/23 13:36:28;;;;;;;14.93;12.50;;;;;;;;;;5113514;28;20442;-72
2023/05/23 13:38:55;;;;;;;19.07;13.30;;;;;;;;;;5113717;28;20452;-71
2023/05/23 13:41:23;;;;;;;15.90;14.13;;;;;;;;;;5113366;28;20460;-73
2023/05/23 13:43:51;;;;;;;18.53;15.60;;;;;;;;;;5113461;28;20836;-74
2023/05/23 13:46:18;;;;;;;21.90;14.30;;;;;;;;;;5113487;28;20449;-74
2023/05/23 13:48:45;;;;;;;20.40;16.30;;;;;;;;;;5113368;28;20791;-72
2023/05/23 13:51:12;;;;;;;28.70;18.93;;;;;;;;;;5113427;28;20872;-73
2023/05/23 13:53:39;;;;;;;25.07;18.60;;;;;;;;;;5113258;28;20496;-72
2023/05/23 13:56:06;;;;;;;20.87;17.60;;;;;;;;;;5113419;28;20457;-73
2023/05/23 13:58:34;;;;;;;26.57;19.97;;;;;;;;;;5113497;28;20453;-74
2023/05/23 14:01:02;;;;;;;21.87;18.23;;;;;;;;;;5113310;28;20453;-73
2023/05/23 14:03:29;;;;;;;21.80;17.30;;;;;;;;;;5113812;28;20493;-75
2023/05/23 14:05:56;;;;;;;19.20;16.43;;;;;;;;;;5117519;28;20473;-73
2023/05/23 14:08:23;;;;;;;23.40;16.67;;;;;;;;;;5117549;28;20457;-72
2023/05/23 14:10:50;;;;;;;19.67;15.60;;;;;;;;;;5117733;28;20449;-73
2023/05/23 14:13:17;;;;;;;17.60;14.77;;;;;;;;;;5117310;28;20476;-72
2023/05/23 14:15:46;;;;;;;22.73;16.00;;;;;;;;;;5117171;28;20468;-73
2023/05/23 14:18:13;;;;;;;18.03;13.47;;;;;;;;;;5117341;28;20460;-73
2023/05/23 14:20:40;;;;;;;17.07;12.70;;;;;;;;;;5116707;28;20450;-72
2023/05/23 14:23:08;;;;;;;18.33;13.20;;;;;;;;;;5117024;28;20489;-73